createdAt,value
2018-06-18T00:00:08.246Z,100460
2018-06-18T00:01:13.247Z,100457
2018-06-18T00:02:18.121Z,100466
2018-06-18T00:03:23.557Z,100463
2018-06-18T00:04:29.490Z,100460
2018-06-18T00:05:34.634Z,100472
2018-06-18T00:06:40.220Z,100466
2018-06-18T00:07:44.814Z,100469
2018-06-18T00:08:50.243Z,100472
2018-06-18T00:09:55.923Z,100475
2018-06-18T00:11:00.799Z,100475
2018-06-18T00:12:05.656Z,100477
2018-06-18T00:13:10.490Z,100488
2018-06-18T00:14:15.654Z,100480
2018-06-18T00:15:20.808Z,100480
2018-06-18T00:16:25.748Z,100475
2018-06-18T00:17:30.620Z,100463
2018-06-18T00:18:36.427Z,100469
2018-06-18T00:19:41.865Z,100460
2018-06-18T00:20:47.294Z,100466
2018-06-18T00:21:53.106Z,100469
2018-06-18T00:22:57.687Z,100472
2018-06-18T00:24:02.855Z,100475
2018-06-18T00:25:07.690Z,100463
2018-06-18T00:26:13.153Z,100469
2018-06-18T00:27:18.310Z,100457
2018-06-18T00:28:24.097Z,100469
2018-06-18T00:29:29.254Z,100463
2018-06-18T00:30:35.207Z,100460
2018-06-18T00:31:40.659Z,100463
2018-06-18T00:32:45.816Z,100460
2018-06-18T00:33:51.226Z,100472
2018-06-18T00:34:56.379Z,100469
2018-06-18T00:36:01.818Z,100463
2018-06-18T00:37:06.932Z,100472
2018-06-18T00:38:11.797Z,100469
2018-06-18T00:39:17.230Z,100463
2018-06-18T00:40:22.911Z,100463
2018-06-18T00:41:27.784Z,100463
2018-06-18T00:42:33.041Z,100463
2018-06-18T00:43:38.193Z,100475
2018-06-18T00:44:43.624Z,100466
2018-06-18T00:45:49.118Z,100472
2018-06-18T00:46:54.551Z,100477
2018-06-18T00:47:59.979Z,100463
2018-06-18T00:49:05.772Z,100475
2018-06-18T00:50:10.919Z,100460
2018-06-18T00:51:16.073Z,100466
2018-06-18T00:52:21.857Z,100460
2018-06-18T00:53:27.290Z,100460
2018-06-18T00:54:32.968Z,100460
2018-06-18T00:55:38.425Z,100460
2018-06-18T00:56:43.588Z,100457
2018-06-18T00:57:48.812Z,100463
2018-06-18T00:58:54.241Z,100463
2018-06-18T00:59:59.402Z,100469
2018-06-18T01:01:04.822Z,100463
2018-06-18T01:02:10.255Z,100466
2018-06-18T01:03:14.885Z,100457
2018-06-18T01:04:19.721Z,100466
2018-06-18T01:05:24.318Z,100472
2018-06-18T01:06:30.471Z,100460
2018-06-18T01:07:35.334Z,100463
2018-06-18T01:08:40.478Z,100475
2018-06-18T01:09:45.566Z,100460
2018-06-18T01:10:51.003Z,100463
2018-06-18T01:11:55.893Z,100466
2018-06-18T01:13:01.673Z,100469
2018-06-18T01:14:06.009Z,100469
2018-06-18T01:15:10.883Z,100455
2018-06-18T01:16:15.730Z,100460
2018-06-18T01:17:20.330Z,100472
2018-06-18T01:18:25.860Z,100469
2018-06-18T01:19:30.448Z,100469
2018-06-18T01:20:35.321Z,100469
2018-06-18T01:21:40.753Z,100466
2018-06-18T01:22:46.201Z,100460
2018-06-18T01:23:51.639Z,100457
2018-06-18T01:24:57.042Z,100466
2018-06-18T01:26:02.474Z,100463
2018-06-18T01:27:07.349Z,100457
2018-06-18T01:28:12.576Z,100452
2018-06-18T01:29:17.742Z,100449
2018-06-18T01:30:22.909Z,100449
2018-06-18T01:31:27.866Z,100455
2018-06-18T01:32:33.078Z,100469
2018-06-18T01:33:38.858Z,100463
2018-06-18T01:34:44.293Z,100449
2018-06-18T01:35:49.728Z,100463
2018-06-18T01:36:55.158Z,100452
2018-06-18T01:38:00.601Z,100455
2018-06-18T01:39:05.232Z,100449
2018-06-18T01:40:10.689Z,100446
2018-06-18T01:41:16.124Z,100449
2018-06-18T01:42:21.556Z,100455
2018-06-18T01:43:26.884Z,100446
2018-06-18T01:44:32.027Z,100452
2018-06-18T01:45:37.579Z,100449
2018-06-18T01:46:42.163Z,100452
2018-06-18T01:47:47.325Z,100446
2018-06-18T01:48:52.591Z,100446
2018-06-18T01:49:58.043Z,100437
2018-06-18T01:51:02.623Z,100440
2018-06-18T01:52:06.899Z,100437
2018-06-18T01:53:11.768Z,100440
2018-06-18T01:54:16.646Z,100440
2018-06-18T01:55:22.197Z,100440
2018-06-18T01:56:27.630Z,100426
2018-06-18T01:57:32.775Z,100437
2018-06-18T01:58:37.665Z,100434
2018-06-18T01:59:42.817Z,100428
2018-06-18T02:00:48.498Z,100431
2018-06-18T02:01:53.398Z,100440
2018-06-18T02:02:58.559Z,100437
2018-06-18T02:04:03.778Z,100431
2018-06-18T02:05:09.212Z,100428
2018-06-18T02:06:14.377Z,100440
2018-06-18T02:07:19.599Z,100437
2018-06-18T02:08:24.751Z,100426
2018-06-18T02:09:30.732Z,100431
2018-06-18T02:10:36.177Z,100431
2018-06-18T02:11:41.647Z,100437
2018-06-18T02:12:46.467Z,100437
2018-06-18T02:13:51.628Z,100440
2018-06-18T02:14:56.784Z,100440
2018-06-18T02:16:02.211Z,100449
2018-06-18T02:17:07.117Z,100443
2018-06-18T02:18:11.709Z,100426
2018-06-18T02:19:16.732Z,100434
2018-06-18T02:20:21.922Z,100437
2018-06-18T02:21:27.045Z,100437
2018-06-18T02:22:32.476Z,100434
2018-06-18T02:23:37.337Z,100428
2018-06-18T02:24:43.215Z,100420
2018-06-18T02:25:48.368Z,100423
2018-06-18T02:26:53.274Z,100417
2018-06-18T02:27:58.837Z,100420
2018-06-18T02:29:03.711Z,100411
2018-06-18T02:30:08.579Z,100423
2018-06-18T02:31:14.358Z,100434
2018-06-18T02:32:19.229Z,100434
2018-06-18T02:33:24.115Z,100426
2018-06-18T02:34:30.793Z,100440
2018-06-18T02:35:35.961Z,100428
2018-06-18T02:36:41.792Z,100434
2018-06-18T02:37:47.228Z,100431
2018-06-18T02:38:52.409Z,100428
2018-06-18T02:39:57.974Z,100431
2018-06-18T02:41:02.840Z,100428
2018-06-18T02:42:07.442Z,100428
2018-06-18T02:43:13.279Z,100414
2018-06-18T02:44:18.708Z,100408
2018-06-18T02:45:24.165Z,100420
2018-06-18T02:46:29.575Z,100426
2018-06-18T02:47:34.733Z,100428
2018-06-18T02:48:40.819Z,100440
2018-06-18T02:49:46.266Z,100443
2018-06-18T02:50:51.696Z,100434
2018-06-18T02:51:56.863Z,100437
2018-06-18T02:53:02.018Z,100440
2018-06-18T02:54:06.343Z,100437
2018-06-18T02:55:11.186Z,100440
2018-06-18T02:56:16.680Z,100428
2018-06-18T02:57:21.557Z,100437
2018-06-18T02:58:27.323Z,100443
2018-06-18T02:59:32.214Z,100428
2018-06-18T03:00:37.479Z,100437
2018-06-18T03:01:42.955Z,100446
2018-06-18T03:02:48.398Z,100455
2018-06-18T03:03:54.247Z,100449
2018-06-18T03:04:59.413Z,100454
2018-06-18T03:06:04.565Z,100449
2018-06-18T03:07:09.510Z,100446
2018-06-18T03:08:14.104Z,100440
2018-06-18T03:09:19.544Z,100448
2018-06-18T03:10:24.782Z,100454
2018-06-18T03:11:29.952Z,100454
2018-06-18T03:12:35.245Z,100457
2018-06-18T03:13:40.117Z,100448
2018-06-18T03:14:45.294Z,100457
2018-06-18T03:15:51.138Z,100448
2018-06-18T03:16:56.285Z,100454
2018-06-18T03:18:00.883Z,100448
2018-06-18T03:19:06.163Z,100448
2018-06-18T03:20:11.037Z,100451
2018-06-18T03:21:16.200Z,100457
2018-06-18T03:22:21.599Z,100446
2018-06-18T03:23:26.476Z,100443
2018-06-18T03:24:31.998Z,100454
2018-06-18T03:25:36.873Z,100440
2018-06-18T03:26:42.022Z,100446
2018-06-18T03:27:47.701Z,100443
2018-06-18T03:28:52.854Z,100443
2018-06-18T03:29:58.293Z,100440
2018-06-18T03:31:03.514Z,100443
2018-06-18T03:32:08.382Z,100443
2018-06-18T03:33:12.983Z,100443
2018-06-18T03:34:18.671Z,100443
2018-06-18T03:35:24.119Z,100434
2018-06-18T03:36:29.282Z,100425
2018-06-18T03:37:34.476Z,100446
2018-06-18T03:38:39.630Z,100437
2018-06-18T03:39:45.474Z,100443
2018-06-18T03:40:50.915Z,100440
2018-06-18T03:41:56.065Z,100443
2018-06-18T03:43:01.468Z,100434
2018-06-18T03:44:06.343Z,100443
2018-06-18T03:45:11.496Z,100437
2018-06-18T03:46:16.339Z,100437
2018-06-18T03:47:21.769Z,100443
2018-06-18T03:48:26.925Z,100443
2018-06-18T03:49:32.371Z,100440
2018-06-18T03:50:37.800Z,100431
2018-06-18T03:51:43.212Z,100434
2018-06-18T03:52:48.364Z,100431
2018-06-18T03:53:53.793Z,100428
2018-06-18T03:54:59.298Z,100434
2018-06-18T03:56:03.878Z,100434
2018-06-18T03:57:08.771Z,100431
2018-06-18T03:58:13.890Z,100431
2018-06-18T03:59:19.320Z,100446
2018-06-18T04:00:24.477Z,100446
2018-06-18T04:01:44.987Z,100452
2018-06-18T04:02:50.416Z,100449
2018-06-18T04:03:56.097Z,100443
2018-06-18T04:05:01.266Z,100446
2018-06-18T04:06:06.712Z,100443
2018-06-18T04:07:12.123Z,100443
2018-06-18T04:08:17.291Z,100443
2018-06-18T04:09:22.766Z,100446
2018-06-18T04:10:28.374Z,100443
2018-06-18T04:11:33.267Z,100446
2018-06-18T04:12:38.403Z,100446
2018-06-18T04:13:43.843Z,100443
2018-06-18T04:14:48.995Z,100440
2018-06-18T04:15:54.548Z,100440
2018-06-18T04:16:59.976Z,100446
2018-06-18T04:18:05.415Z,100437
2018-06-18T04:19:11.199Z,100443
2018-06-18T04:20:16.353Z,100437
2018-06-18T04:21:21.788Z,100446
2018-06-18T04:22:27.302Z,100440
2018-06-18T04:23:32.453Z,100446
2018-06-18T04:24:38.133Z,100443
2018-06-18T04:25:43.599Z,100437
2018-06-18T04:26:49.035Z,100437
2018-06-18T04:27:54.190Z,100437
2018-06-18T04:28:59.620Z,100449
2018-06-18T04:30:04.775Z,100443
2018-06-18T04:31:09.504Z,100449
2018-06-18T04:32:14.376Z,100449
2018-06-18T04:33:19.259Z,100443
2018-06-18T04:34:24.659Z,100437
2018-06-18T04:35:29.237Z,100431
2018-06-18T04:36:34.085Z,100449
2018-06-18T04:37:39.736Z,100440
2018-06-18T04:38:44.890Z,100437
2018-06-18T04:39:50.680Z,100449
2018-06-18T04:40:55.559Z,100443
2018-06-18T04:42:00.421Z,100446
2018-06-18T04:43:05.179Z,100434
2018-06-18T04:44:10.619Z,100440
2018-06-18T04:45:15.783Z,100440
2018-06-18T04:46:21.566Z,100434
2018-06-18T04:47:26.724Z,100440
2018-06-18T04:48:32.238Z,100434
2018-06-18T04:49:37.391Z,100437
2018-06-18T04:50:42.557Z,100429
2018-06-18T04:51:48.139Z,100437
2018-06-18T04:52:53.309Z,100429
2018-06-18T04:53:58.796Z,100443
2018-06-18T04:55:04.052Z,100446
2018-06-18T04:56:08.920Z,100446
2018-06-18T04:57:14.067Z,100440
2018-06-18T04:58:19.750Z,100449
2018-06-18T04:59:25.201Z,100446
2018-06-18T05:00:29.931Z,100449
2018-06-18T05:01:35.386Z,100440
2018-06-18T05:02:40.555Z,100434
2018-06-18T05:03:45.690Z,100443
2018-06-18T05:04:51.112Z,100437
2018-06-18T05:05:56.001Z,100446
2018-06-18T05:07:01.689Z,100437
2018-06-18T05:08:06.028Z,100443
2018-06-18T05:09:10.894Z,100440
2018-06-18T05:10:16.310Z,100443
2018-06-18T05:11:21.213Z,100446
2018-06-18T05:12:26.931Z,100443
2018-06-18T05:13:32.362Z,100440
2018-06-18T05:14:37.797Z,100452
2018-06-18T05:15:43.199Z,100449
2018-06-18T05:16:48.372Z,100455
2018-06-18T05:17:53.804Z,100452
2018-06-18T05:18:58.966Z,100452
2018-06-18T05:20:04.107Z,100452
2018-06-18T05:21:09.285Z,100446
2018-06-18T05:22:14.694Z,100449
2018-06-18T05:23:20.124Z,100443
2018-06-18T05:24:40.555Z,100455
2018-06-18T05:25:45.429Z,100452
2018-06-18T05:26:50.880Z,100458
2018-06-18T05:27:56.663Z,100464
2018-06-18T05:29:01.243Z,100461
2018-06-18T05:30:05.893Z,100461
2018-06-18T05:31:11.412Z,100464
2018-06-18T05:32:16.868Z,100461
2018-06-18T05:33:22.019Z,100458
2018-06-18T05:34:27.776Z,100469
2018-06-18T05:35:33.209Z,100464
2018-06-18T05:36:38.996Z,100469
2018-06-18T05:37:44.436Z,100472
2018-06-18T05:38:49.310Z,100464
2018-06-18T05:39:55.242Z,100469
2018-06-18T05:41:00.670Z,100461
2018-06-18T05:42:05.270Z,100461
2018-06-18T05:43:09.857Z,100458
2018-06-18T05:44:15.310Z,100467
2018-06-18T05:45:20.489Z,100461
2018-06-18T05:46:26.639Z,100464
2018-06-18T05:47:32.081Z,100467
2018-06-18T05:48:37.595Z,100461
2018-06-18T05:49:43.034Z,100458
2018-06-18T05:50:48.189Z,100467
2018-06-18T05:51:53.591Z,100475
2018-06-18T05:52:58.757Z,100475
2018-06-18T05:54:03.655Z,100469
2018-06-18T05:55:09.350Z,100480
2018-06-18T05:56:14.496Z,100472
2018-06-18T05:57:19.645Z,100477
2018-06-18T05:58:25.240Z,100475
2018-06-18T05:59:30.443Z,100489
2018-06-18T06:00:36.133Z,100483
2018-06-18T06:01:41.290Z,100483
2018-06-18T06:02:46.756Z,100477
2018-06-18T06:03:51.873Z,100477
2018-06-18T06:04:57.311Z,100475
2018-06-18T06:06:02.904Z,100480
2018-06-18T06:07:07.861Z,100489
2018-06-18T06:08:12.737Z,100486
2018-06-18T06:09:18.168Z,100486
2018-06-18T06:10:24.008Z,100477
2018-06-18T06:11:29.454Z,100486
2018-06-18T06:12:34.047Z,100480
2018-06-18T06:13:39.200Z,100475
2018-06-18T06:14:44.642Z,100477
2018-06-18T06:15:49.884Z,100475
2018-06-18T06:16:55.239Z,100480
2018-06-18T06:18:01.129Z,100480
2018-06-18T06:19:06.546Z,100477
2018-06-18T06:20:11.690Z,100480
2018-06-18T06:21:16.569Z,100470
2018-06-18T06:22:22.371Z,100477
2018-06-18T06:23:27.846Z,100477
2018-06-18T06:24:33.350Z,100477
2018-06-18T06:25:38.503Z,100472
2018-06-18T06:26:43.666Z,100477
2018-06-18T06:27:49.428Z,100477
2018-06-18T06:28:54.841Z,100480
2018-06-18T06:30:00.273Z,100472
2018-06-18T06:31:05.395Z,100467
2018-06-18T06:32:10.266Z,100467
2018-06-18T06:33:15.418Z,100475
2018-06-18T06:34:20.536Z,100475
2018-06-18T06:35:25.396Z,100464
2018-06-18T06:36:30.551Z,100475
2018-06-18T06:37:36.020Z,100467
2018-06-18T06:38:40.924Z,100475
2018-06-18T06:39:46.592Z,100480
2018-06-18T06:40:51.746Z,100464
2018-06-18T06:41:57.202Z,100472
2018-06-18T06:43:02.596Z,100480
2018-06-18T06:44:07.207Z,100472
2018-06-18T06:45:11.789Z,100475
2018-06-18T06:46:17.200Z,100477
2018-06-18T06:47:22.626Z,100480
2018-06-18T06:48:28.246Z,100475
2018-06-18T06:49:33.390Z,100483
2018-06-18T06:50:38.546Z,100483
2018-06-18T06:51:44.040Z,100486
2018-06-18T06:52:49.194Z,100480
2018-06-18T06:53:54.340Z,100492
2018-06-18T06:55:00.052Z,100480
2018-06-18T06:56:04.635Z,100489
2018-06-18T06:57:09.802Z,100477
2018-06-18T06:58:14.644Z,100486
2018-06-18T06:59:19.512Z,100486
2018-06-18T07:00:23.531Z,100501
2018-06-18T07:01:28.400Z,100489
2018-06-18T07:02:33.559Z,100492
2018-06-18T07:03:39.390Z,100492
2018-06-18T07:04:44.746Z,100498
2018-06-18T07:05:49.626Z,100495
2018-06-18T07:06:54.931Z,100495
2018-06-18T07:08:00.141Z,100486
2018-06-18T07:09:05.205Z,100498
2018-06-18T07:10:10.886Z,100495
2018-06-18T07:11:15.475Z,100495
2018-06-18T07:12:20.911Z,100498
2018-06-18T07:13:26.824Z,100498
2018-06-18T07:14:32.609Z,100506
2018-06-18T07:15:37.835Z,100501
2018-06-18T07:16:42.981Z,100501
2018-06-18T07:17:48.280Z,100498
2018-06-18T07:18:53.398Z,100498
2018-06-18T07:19:59.037Z,100509
2018-06-18T07:21:04.196Z,100504
2018-06-18T07:22:09.048Z,100512
2018-06-18T07:23:14.512Z,100501
2018-06-18T07:24:19.705Z,100501
2018-06-18T07:25:25.231Z,100504
2018-06-18T07:26:30.568Z,100489
2018-06-18T07:27:35.976Z,100495
2018-06-18T07:28:41.446Z,100498
2018-06-18T07:29:46.588Z,100495
2018-06-18T07:30:52.373Z,100495
2018-06-18T07:31:57.659Z,100492
2018-06-18T07:33:02.804Z,100489
2018-06-18T07:34:08.069Z,100495
2018-06-18T07:35:13.224Z,100498
2018-06-18T07:36:18.663Z,100501
2018-06-18T07:37:24.204Z,100495
2018-06-18T07:38:29.368Z,100498
2018-06-18T07:39:34.611Z,100506
2018-06-18T07:40:39.483Z,100501
2018-06-18T07:41:44.917Z,100509
2018-06-18T07:42:50.334Z,100506
2018-06-18T07:43:55.532Z,100504
2018-06-18T07:45:00.831Z,100504
2018-06-18T07:46:06.517Z,100495
2018-06-18T07:47:11.395Z,100495
2018-06-18T07:48:16.002Z,100492
2018-06-18T07:49:21.420Z,100495
2018-06-18T07:50:26.308Z,100492
2018-06-18T07:51:32.001Z,100495
2018-06-18T07:52:37.306Z,100495
2018-06-18T07:53:42.480Z,100498
2018-06-18T07:54:47.973Z,100501
2018-06-18T07:55:53.421Z,100515
2018-06-18T07:56:58.983Z,100501
2018-06-18T07:58:04.497Z,100509
2018-06-18T07:59:09.362Z,100509
2018-06-18T08:00:14.513Z,100509
2018-06-18T08:01:19.663Z,100501
2018-06-18T08:02:24.736Z,100492
2018-06-18T08:03:30.460Z,100504
2018-06-18T08:04:35.661Z,100507
2018-06-18T08:05:41.103Z,100504
2018-06-18T08:06:46.513Z,100498
2018-06-18T08:07:51.667Z,100509
2018-06-18T08:08:56.810Z,100504
2018-06-18T08:10:01.986Z,100501
2018-06-18T08:11:07.157Z,100498
2018-06-18T08:12:12.607Z,100495
2018-06-18T08:13:17.859Z,100495
2018-06-18T08:14:23.021Z,100495
2018-06-18T08:15:28.198Z,100498
2018-06-18T08:16:33.363Z,100498
2018-06-18T08:17:38.854Z,100504
2018-06-18T08:18:44.639Z,100509
2018-06-18T08:19:49.507Z,100512
2018-06-18T08:20:54.108Z,100507
2018-06-18T08:21:59.902Z,100507
2018-06-18T08:23:05.069Z,100512
2018-06-18T08:24:10.226Z,100504
2018-06-18T08:25:15.559Z,100498
2018-06-18T08:26:20.991Z,100507
2018-06-18T08:27:26.385Z,100504
2018-06-18T08:28:30.995Z,100512
2018-06-18T08:29:36.147Z,100515
2018-06-18T08:30:41.421Z,100504
2018-06-18T08:31:46.578Z,100512
2018-06-18T08:32:51.434Z,100504
2018-06-18T08:33:56.553Z,100504
2018-06-18T08:35:01.702Z,100507
2018-06-18T08:36:06.298Z,100501
2018-06-18T08:37:11.430Z,100512
2018-06-18T08:38:16.861Z,100507
2018-06-18T08:39:22.173Z,100504
2018-06-18T08:40:28.219Z,100512
2018-06-18T08:41:33.373Z,100512
2018-06-18T08:42:38.878Z,100515
2018-06-18T08:43:44.033Z,100512
2018-06-18T08:44:49.187Z,100507
2018-06-18T08:45:54.654Z,100504
2018-06-18T08:46:59.838Z,100507
2018-06-18T08:48:04.707Z,100495
2018-06-18T08:49:10.519Z,100507
2018-06-18T08:50:15.385Z,100507
2018-06-18T08:51:20.989Z,100501
2018-06-18T08:52:26.542Z,100504
2018-06-18T08:53:31.687Z,100510
2018-06-18T08:54:37.103Z,100510
2018-06-18T08:55:41.975Z,100507
2018-06-18T08:56:47.418Z,100510
2018-06-18T08:57:52.961Z,100498
2018-06-18T08:58:58.240Z,100504
2018-06-18T09:00:03.100Z,100504
2018-06-18T09:01:08.675Z,100504
2018-06-18T09:02:13.827Z,100507
2018-06-18T09:03:19.020Z,100507
2018-06-18T09:04:24.469Z,100498
2018-06-18T09:05:28.828Z,100501
2018-06-18T09:06:34.138Z,100501
2018-06-18T09:07:39.626Z,100501
2018-06-18T09:08:44.513Z,100504
2018-06-18T09:09:49.665Z,100501
2018-06-18T09:10:54.824Z,100501
2018-06-18T09:11:59.709Z,100501
2018-06-18T09:13:04.966Z,100498
2018-06-18T09:14:10.052Z,100504
2018-06-18T09:15:15.199Z,100501
2018-06-18T09:16:20.888Z,100501
2018-06-18T09:17:25.470Z,100501
2018-06-18T09:18:31.024Z,100495
2018-06-18T09:19:36.462Z,100495
2018-06-18T09:20:41.918Z,100495
2018-06-18T09:21:47.605Z,100489
2018-06-18T09:22:52.755Z,100489
2018-06-18T09:23:58.192Z,100492
2018-06-18T09:25:03.446Z,100495
2018-06-18T09:26:08.310Z,100495
2018-06-18T09:27:13.478Z,100492
2018-06-18T09:28:19.170Z,100489
2018-06-18T09:29:24.050Z,100484
2018-06-18T09:30:28.888Z,100489
2018-06-18T09:31:33.490Z,100484
2018-06-18T09:32:39.319Z,100481
2018-06-18T09:33:45.474Z,100484
2018-06-18T09:34:50.648Z,100495
2018-06-18T09:35:56.090Z,100495
2018-06-18T09:37:01.221Z,100501
2018-06-18T09:38:06.089Z,100489
2018-06-18T09:39:10.981Z,100492
2018-06-18T09:40:16.791Z,100492
2018-06-18T09:41:22.278Z,100498
2018-06-18T09:42:27.615Z,100495
2018-06-18T09:43:33.074Z,100498
2018-06-18T09:44:38.539Z,100481
2018-06-18T09:45:43.507Z,100495
2018-06-18T09:46:48.404Z,100487
2018-06-18T09:47:53.843Z,100495
2018-06-18T09:48:59.253Z,100495
2018-06-18T09:50:04.417Z,100487
2018-06-18T09:51:09.588Z,100481
2018-06-18T09:52:15.101Z,100481
2018-06-18T09:53:20.294Z,100487
2018-06-18T09:54:40.198Z,100484
2018-06-18T09:55:45.201Z,100487
2018-06-18T09:56:50.435Z,100490
2018-06-18T09:57:55.277Z,100481
2018-06-18T09:59:00.788Z,100476
2018-06-18T10:00:05.652Z,100492
2018-06-18T10:01:10.498Z,100481
2018-06-18T10:02:15.750Z,100484
2018-06-18T10:03:21.313Z,100484
2018-06-18T10:04:41.463Z,100478
2018-06-18T10:05:46.618Z,100487
2018-06-18T10:06:51.516Z,100490
2018-06-18T10:07:56.860Z,100473
2018-06-18T10:09:02.025Z,100484
2018-06-18T10:10:06.878Z,100473
2018-06-18T10:11:12.322Z,100490
2018-06-18T10:12:17.771Z,100490
2018-06-18T10:13:23.003Z,100478
2018-06-18T10:14:28.277Z,100493
2018-06-18T10:15:33.623Z,100484
2018-06-18T10:16:39.459Z,100487
2018-06-18T10:17:44.901Z,100478
2018-06-18T10:18:50.444Z,100493
2018-06-18T10:19:55.328Z,100495
2018-06-18T10:21:00.490Z,100487
2018-06-18T10:22:05.749Z,100495
2018-06-18T10:23:10.615Z,100490
2018-06-18T10:24:16.308Z,100490
2018-06-18T10:25:22.366Z,100495
2018-06-18T10:26:27.234Z,100490
2018-06-18T10:27:32.680Z,100490
2018-06-18T10:28:37.832Z,100493
2018-06-18T10:29:43.220Z,100484
2018-06-18T10:30:48.350Z,100495
2018-06-18T10:31:53.789Z,100490
2018-06-18T10:32:58.956Z,100490
2018-06-18T10:34:04.088Z,100484
2018-06-18T10:35:08.966Z,100490
2018-06-18T10:36:13.560Z,100495
2018-06-18T10:37:18.957Z,100490
2018-06-18T10:38:24.399Z,100493
2018-06-18T10:39:30.093Z,100493
2018-06-18T10:40:35.257Z,100493
2018-06-18T10:41:40.156Z,100490
2018-06-18T10:42:45.835Z,100487
2018-06-18T10:43:50.994Z,100495
2018-06-18T10:44:56.442Z,100484
2018-06-18T10:46:02.128Z,100481
2018-06-18T10:47:07.383Z,100493
2018-06-18T10:48:12.827Z,100490
2018-06-18T10:49:18.146Z,100487
2018-06-18T10:50:23.616Z,100487
2018-06-18T10:51:29.615Z,100493
2018-06-18T10:52:35.266Z,100487
2018-06-18T10:53:40.703Z,100498
2018-06-18T10:54:45.919Z,100495
2018-06-18T10:55:51.088Z,100490
2018-06-18T10:56:56.701Z,100498
2018-06-18T10:58:02.160Z,100484
2018-06-18T10:59:07.033Z,100478
2018-06-18T11:00:12.488Z,100481
2018-06-18T11:01:17.733Z,100478
2018-06-18T11:02:22.049Z,100476
2018-06-18T11:03:27.277Z,100481
2018-06-18T11:04:32.431Z,100487
2018-06-18T11:05:37.926Z,100484
2018-06-18T11:06:43.709Z,100476
2018-06-18T11:07:48.588Z,100476
2018-06-18T11:08:53.486Z,100484
2018-06-18T11:09:58.739Z,100490
2018-06-18T11:11:03.292Z,100484
2018-06-18T11:12:08.731Z,100470
2018-06-18T11:13:13.855Z,100476
2018-06-18T11:14:19.357Z,100478
2018-06-18T11:15:24.235Z,100478
2018-06-18T11:16:30.878Z,100470
2018-06-18T11:17:37.911Z,100467
2018-06-18T11:18:43.337Z,100473
2018-06-18T11:19:48.533Z,100470
2018-06-18T11:20:53.966Z,100476
2018-06-18T11:21:59.496Z,100470
2018-06-18T11:23:04.928Z,100478
2018-06-18T11:24:09.815Z,100473
2018-06-18T11:25:15.863Z,100470
2018-06-18T11:26:21.479Z,100481
2018-06-18T11:27:26.840Z,100478
2018-06-18T11:28:31.929Z,100484
2018-06-18T11:29:37.251Z,100487
2018-06-18T11:30:43.068Z,100473
2018-06-18T11:31:47.676Z,100490
2018-06-18T11:32:52.280Z,100481
2018-06-18T11:33:57.819Z,100487
2018-06-18T11:35:02.969Z,100487
2018-06-18T11:36:08.129Z,100484
2018-06-18T11:37:13.847Z,100484
2018-06-18T11:38:19.279Z,100487
2018-06-18T11:39:25.406Z,100481
2018-06-18T11:40:31.439Z,100484
2018-06-18T11:41:36.728Z,100476
2018-06-18T11:42:42.394Z,100478
2018-06-18T11:43:47.791Z,100496
2018-06-18T11:44:52.655Z,100496
2018-06-18T11:45:57.941Z,100478
2018-06-18T11:47:02.576Z,100481
2018-06-18T11:48:07.830Z,100481
2018-06-18T11:49:13.443Z,100487
2018-06-18T11:50:18.613Z,100495
2018-06-18T11:51:24.341Z,100487
2018-06-18T11:52:44.468Z,100481
2018-06-18T11:53:49.726Z,100476
2018-06-18T11:54:55.415Z,100476
2018-06-18T11:56:00.946Z,100484
2018-06-18T11:57:05.251Z,100478
2018-06-18T11:58:09.823Z,100476
2018-06-18T11:59:15.301Z,100484
2018-06-18T12:00:20.384Z,100478
2018-06-18T12:01:26.075Z,100483
2018-06-18T12:02:31.861Z,100473
2018-06-18T12:03:37.399Z,100486
2018-06-18T12:04:42.281Z,100489
2018-06-18T12:05:47.162Z,100476
2018-06-18T12:06:53.081Z,100483
2018-06-18T12:07:58.242Z,100486
2018-06-18T12:09:02.832Z,100483
2018-06-18T12:10:08.290Z,100478
2018-06-18T12:11:13.148Z,100467
2018-06-18T12:12:18.311Z,100476
2018-06-18T12:13:23.940Z,100470
2018-06-18T12:14:28.814Z,100480
2018-06-18T12:15:34.226Z,100470
2018-06-18T12:16:39.785Z,100480
2018-06-18T12:17:45.286Z,100473
2018-06-18T12:18:50.721Z,100473
2018-06-18T12:19:55.867Z,100476
2018-06-18T12:21:01.033Z,100473
2018-06-18T12:22:05.981Z,100483
2018-06-18T12:23:10.865Z,100476
2018-06-18T12:24:16.023Z,100483
2018-06-18T12:25:21.560Z,100473
2018-06-18T12:26:27.197Z,100480
2018-06-18T12:27:32.980Z,100480
2018-06-18T12:28:38.247Z,100464
2018-06-18T12:29:43.654Z,100473
2018-06-18T12:30:49.342Z,100480
2018-06-18T12:31:54.711Z,100470
2018-06-18T12:32:59.858Z,100473
2018-06-18T12:34:05.569Z,100470
2018-06-18T12:35:11.004Z,100478
2018-06-18T12:36:16.679Z,100478
2018-06-18T12:37:22.572Z,100483
2018-06-18T12:38:27.720Z,100473
2018-06-18T12:39:33.560Z,100476
2018-06-18T12:40:38.769Z,100478
2018-06-18T12:41:44.081Z,100476
2018-06-18T12:42:49.150Z,100480
2018-06-18T12:43:54.753Z,100478
2018-06-18T12:44:59.920Z,100461
2018-06-18T12:46:04.752Z,100467
2018-06-18T12:47:09.623Z,100464
2018-06-18T12:48:14.504Z,100458
2018-06-18T12:49:19.909Z,100455
2018-06-18T12:50:25.077Z,100464
2018-06-18T12:51:30.671Z,100467
2018-06-18T12:52:36.026Z,100473
2018-06-18T12:53:41.470Z,100473
2018-06-18T12:54:46.341Z,100455
2018-06-18T12:55:51.995Z,100473
2018-06-18T12:56:57.441Z,100461
2018-06-18T12:58:02.144Z,100455
2018-06-18T12:59:07.304Z,100458
2018-06-18T13:00:11.904Z,100467
2018-06-18T13:01:17.588Z,100464
2018-06-18T13:02:22.956Z,100461
2018-06-18T13:03:28.762Z,100470
2018-06-18T13:04:34.531Z,100467
2018-06-18T13:05:39.987Z,100455
2018-06-18T13:06:45.607Z,100470
2018-06-18T13:07:50.681Z,100461
2018-06-18T13:08:55.426Z,100455
2018-06-18T13:10:01.215Z,100470
2018-06-18T13:11:07.021Z,100458
2018-06-18T13:12:11.905Z,100464
2018-06-18T13:13:17.300Z,100467
2018-06-18T13:14:22.657Z,100461
2018-06-18T13:15:27.863Z,100461
2018-06-18T13:16:32.754Z,100467
2018-06-18T13:17:38.358Z,100452
2018-06-18T13:18:43.913Z,100458
2018-06-18T13:19:48.505Z,100461
2018-06-18T13:20:53.661Z,100461
2018-06-18T13:21:58.981Z,100455
2018-06-18T13:23:03.568Z,100455
2018-06-18T13:24:08.435Z,100461
2018-06-18T13:25:14.043Z,100452
2018-06-18T13:26:19.119Z,100452
2018-06-18T13:27:24.344Z,100461
2018-06-18T13:28:44.391Z,100467
2018-06-18T13:29:50.052Z,100464
2018-06-18T13:30:55.446Z,100467
2018-06-18T13:32:00.760Z,100455
2018-06-18T13:33:05.338Z,100461
2018-06-18T13:34:10.512Z,100464
2018-06-18T13:35:15.660Z,100446